Time;durP1;ratioP1;P1;durP2;ratioP2;P2;SDS_P1;SDS_P2;PMS_P1;PMS_P2;Temp;Humidity;BMP_temperature;BMP_pressure;BME280_temperature;BME280_humidity;BME280_pressure;Samples;Min_cycle;Max_cycle;Signal;HPM_P1;HPM_P2
2021/12/06 00:01:19;;;;;;;53.97;34.55;;;;;;;6.16;67.32;101366.19;5169010;28;20411;-44
2021/12/06 00:03:58;;;;;;;61.85;36.05;;;;;;;6.20;67.36;101357.19;5176375;28;20787;-43
2021/12/06 00:06:33;;;;;;;64.70;36.03;;;;;;;6.26;67.04;101367.25;5174004;28;20434;-42
2021/12/06 00:09:08;;;;;;;61.42;36.10;;;;;;;6.18;67.04;101356.47;5181987;28;20408;-43
2021/12/06 00:11:41;;;;;;;58.97;36.17;;;;;;;6.15;67.25;101348.81;5167944;28;20507;-42
2021/12/06 00:14:13;;;;;;;60.22;36.58;;;;;;;6.24;67.43;101371.75;5174646;28;20490;-43
2021/12/06 00:16:46;;;;;;;59.75;35.97;;;;;;;6.22;67.47;101378.88;5177117;28;20493;-44
2021/12/06 00:19:19;;;;;;;58.77;36.43;;;;;;;6.20;67.28;101383.41;5181908;28;20515;-42
2021/12/06 00:21:52;;;;;;;63.22;37.03;;;;;;;6.19;67.53;101374.72;5167444;28;20752;-42
2021/12/06 00:24:25;;;;;;;73.13;38.75;;;;;;;6.18;67.60;101380.06;5170053;28;20413;-44
2021/12/06 00:26:57;;;;;;;66.18;36.15;;;;;;;6.20;67.51;101379.00;5166191;28;20731;-42
2021/12/06 00:29:30;;;;;;;70.28;38.03;;;;;;;6.21;67.72;101379.84;5181335;28;20477;-46
2021/12/06 00:32:02;;;;;;;67.13;38.78;;;;;;;6.09;67.63;101380.69;5173694;28;20819;-43
2021/12/06 00:34:37;;;;;;;62.83;37.53;;;;;;;6.17;67.79;101394.13;5175405;28;20425;-49
2021/12/06 00:37:18;;;;;;;60.53;38.50;;;;;;;6.17;67.76;101404.63;5173059;28;20899;-45
2021/12/06 00:39:54;;;;;;;60.53;36.80;;;;;;;6.17;67.61;101399.38;5177416;28;20507;-43
2021/12/06 00:42:30;;;;;;;67.60;38.67;;;;;;;6.16;67.78;101397.69;5174712;28;20483;-42
2021/12/06 00:45:05;;;;;;;70.20;39.08;;;;;;;6.20;67.79;101399.16;5180555;28;20421;-43
2021/12/06 00:47:38;;;;;;;66.88;38.17;;;;;;;6.20;67.69;101399.16;5181328;28;20433;-43
2021/12/06 00:50:12;;;;;;;70.63;40.97;;;;;;;6.16;67.84;101389.81;5169167;28;20411;-42
2021/12/06 00:52:45;;;;;;;60.20;39.85;;;;;;;6.17;67.85;101413.31;5176059;28;20424;-44
2021/12/06 00:55:20;;;;;;;66.27;39.23;;;;;;;6.19;68.06;101407.94;5171892;28;20953;-43
2021/12/06 00:57:54;;;;;;;66.70;42.38;;;;;;;6.18;67.70;101401.88;5180433;28;24406;-42
2021/12/06 01:00:34;;;;;;;67.50;40.97;;;;;;;6.31;67.73;101407.09;5180615;28;20466;-47
2021/12/06 01:03:09;;;;;;;66.65;39.20;;;;;;;6.36;67.51;101412.03;5168824;28;20413;-42
2021/12/06 01:05:43;;;;;;;71.72;41.15;;;;;;;6.40;67.48;101416.94;5177686;28;20492;-42
2021/12/06 01:08:15;;;;;;;59.77;39.43;;;;;;;6.12;67.48;101365.59;5167645;28;20502;-42
2021/12/06 01:10:49;;;;;;;60.65;37.22;;;;;;;6.39;67.66;101404.78;5169433;28;20429;-43
2021/12/06 01:13:23;;;;;;;60.40;37.50;;;;;;;6.38;67.74;101418.84;5183800;28;20763;-42
2021/12/06 01:15:55;;;;;;;53.20;35.72;;;;;;;6.36;67.87;101420.72;5184603;28;20415;-42
2021/12/06 01:18:28;;;;;;;58.70;38.90;;;;;;;6.33;67.90;101428.81;5175378;28;20506;-45
2021/12/06 01:21:10;;;;;;;60.65;39.40;;;;;;;6.30;67.92;101421.16;5181946;28;20450;-44
2021/12/06 01:23:52;;;;;;;59.90;35.92;;;;;;;6.38;67.93;101437.22;5181668;28;20427;-43
2021/12/06 01:26:40;;;;;;;58.03;35.72;;;;;;;6.34;67.91;101437.53;5151693;28;20507;-43
2021/12/06 01:29:45;;;;;;;58.10;33.70;;;;;;;6.28;67.80;101438.78;5171376;28;20783;-45
2021/12/06 01:32:35;;;;;;;48.87;31.83;;;;;;;6.22;67.96;101441.84;5186273;28;20480;-44
2021/12/06 01:40:48;;;;;;;46.93;30.10;;;;;;;6.23;68.14;101446.16;5180393;28;20426;-42
2021/12/06 01:43:21;;;;;;;43.60;27.25;;;;;;;6.13;68.03;101450.34;5183585;28;20415;-43
2021/12/06 01:45:53;;;;;;;40.28;27.38;;;;;;;6.06;68.18;101449.94;5185084;28;20830;-43
2021/12/06 01:48:26;;;;;;;42.83;28.65;;;;;;;6.05;68.23;101452.66;5183578;28;20408;-43
2021/12/06 01:50:58;;;;;;;42.35;26.95;;;;;;;6.02;68.36;101447.63;5184290;28;20442;-43
2021/12/06 01:53:32;;;;;;;40.80;28.00;;;;;;;6.07;68.35;101461.25;5172419;28;20415;-44
2021/12/06 01:56:05;;;;;;;35.67;26.73;;;;;;;6.11;68.08;101462.75;5186131;28;20911;-43
2021/12/06 01:58:37;;;;;;;46.40;29.42;;;;;;;6.14;68.15;101462.53;5186690;28;20426;-46
2021/12/06 02:01:10;;;;;;;49.90;29.33;;;;;;;6.12;67.96;101461.78;5171051;28;20397;-44
2021/12/06 02:03:42;;;;;;;44.42;28.90;;;;;;;6.30;67.97;101462.31;5177168;28;20461;-42
2021/12/06 02:06:15;;;;;;;49.75;30.65;;;;;;;6.35;67.76;101468.91;5175153;28;20506;-43
2021/12/06 02:08:49;;;;;;;49.63;31.35;;;;;;;6.35;67.69;101461.03;5174713;28;20893;-43
2021/12/06 02:11:24;;;;;;;55.20;32.80;;;;;;;6.32;67.84;101463.00;5183904;28;20841;-43
2021/12/06 02:14:04;;;;;;;47.53;33.05;;;;;;;6.35;67.80;101462.81;5175840;28;20800;-42
2021/12/06 02:16:43;;;;;;;55.53;34.00;;;;;;;6.30;67.64;101463.13;5182418;28;20419;-42
2021/12/06 02:19:18;;;;;;;51.47;32.47;;;;;;;6.20;67.85;101464.72;5182515;28;24063;-43
2021/12/06 02:21:52;;;;;;;50.30;33.40;;;;;;;5.91;68.08;101412.44;5183378;28;20426;-43
2021/12/06 02:24:25;;;;;;;47.53;32.07;;;;;;;6.18;68.04;101453.50;5177466;28;20420;-43
2021/12/06 02:26:58;;;;;;;52.13;33.40;;;;;;;6.26;67.94;101453.81;5187413;28;20426;-46
2021/12/06 02:29:31;;;;;;;51.85;32.97;;;;;;;6.27;67.61;101449.41;5175349;28;20511;-43
2021/12/06 02:32:09;;;;;;;52.50;33.10;;;;;;;6.34;67.81;101446.22;5173146;28;20494;-43
2021/12/06 02:34:44;;;;;;;51.33;33.05;;;;;;;6.23;67.84;101451.41;5185395;28;20953;-43
2021/12/06 02:37:23;;;;;;;53.75;32.45;;;;;;;6.26;67.90;101456.44;5181944;28;20498;-44
2021/12/06 02:39:56;;;;;;;50.20;32.42;;;;;;;6.19;67.87;101452.53;5178633;28;20441;-43
2021/12/06 02:42:28;;;;;;;49.38;32.75;;;;;;;6.17;67.92;101457.06;5171055;28;20506;-44
2021/12/06 02:45:01;;;;;;;51.38;31.13;;;;;;;6.21;67.88;101448.03;5182826;28;20408;-42
2021/12/06 02:47:33;;;;;;;50.45;33.25;;;;;;;6.22;67.83;101444.47;5179861;28;20899;-42
2021/12/06 02:50:09;;;;;;;48.58;31.00;;;;;;;6.10;67.92;101430.44;5179624;28;20418;-42
2021/12/06 02:52:43;;;;;;;43.97;31.13;;;;;;;6.11;67.80;101447.84;5184721;28;20563;-43
2021/12/06 02:55:30;;;;;;;49.17;32.08;;;;;;;6.09;67.77;101449.72;5180691;28;20513;-45
2021/12/06 02:58:14;;;;;;;45.97;32.13;;;;;;;6.11;68.00;101444.38;5177972;28;20744;-42
2021/12/06 03:00:52;;;;;;;47.85;32.60;;;;;;;6.11;67.94;101434.72;5178463;28;20955;-44
2021/12/06 03:03:25;;;;;;;46.65;30.45;;;;;;;6.14;67.87;101447.63;5179295;28;20450;-44
2021/12/06 03:05:58;;;;;;;45.67;31.10;;;;;;;6.12;67.90;101444.25;5181569;28;20957;-43
2021/12/06 03:08:42;;;;;;;50.88;31.13;;;;;;;6.15;67.71;101448.47;5172037;28;20399;-43
2021/12/06 03:11:19;;;;;;;47.42;29.67;;;;;;;6.09;67.70;101435.78;5177531;28;20411;-46
2021/12/06 03:13:51;;;;;;;45.80;29.58;;;;;;;6.15;67.70;101453.69;5173198;28;20842;-43
2021/12/06 03:16:24;;;;;;;50.97;30.33;;;;;;;6.17;67.62;101457.06;5186406;28;20415;-43
2021/12/06 03:18:57;;;;;;;52.63;32.47;;;;;;;6.22;67.55;101454.94;5187636;28;20427;-43
2021/12/06 03:21:30;;;;;;;49.30;31.48;;;;;;;6.28;67.38;101457.16;5177583;28;20595;-43
2021/12/06 03:24:05;;;;;;;51.75;32.10;;;;;;;6.32;67.26;101444.66;5176943;28;20430;-42
2021/12/06 03:26:40;;;;;;;50.97;33.45;;;;;;;6.33;67.28;101446.34;5179663;28;20497;-43
2021/12/06 03:29:13;;;;;;;52.90;32.13;;;;;;;6.39;67.18;101452.00;5180628;28;20628;-43
2021/12/06 03:31:46;;;;;;;54.67;32.95;;;;;;;6.36;67.27;101441.72;5180253;28;20675;-42
2021/12/06 03:34:20;;;;;;;48.25;32.50;;;;;;;6.41;67.06;101450.13;5184027;28;20409;-44
2021/12/06 03:36:53;;;;;;;58.70;33.88;;;;;;;6.41;67.28;101446.63;5174836;28;20423;-42
2021/12/06 03:39:30;;;;;;;56.27;35.87;;;;;;;6.37;67.19;101453.88;5175718;28;20549;-43
2021/12/06 03:42:07;;;;;;;55.53;35.05;;;;;;;6.37;67.07;101448.63;5177935;28;20409;-47
2021/12/06 03:44:39;;;;;;;53.40;33.88;;;;;;;6.34;67.11;101459.34;5182386;28;20419;-49
2021/12/06 03:47:16;;;;;;;54.73;34.40;;;;;;;6.30;67.18;101439.53;5181683;28;20479;-44
2021/12/06 03:49:48;;;;;;;51.25;33.22;;;;;;;6.23;67.20;101426.00;5184757;28;20486;-46
2021/12/06 03:52:22;;;;;;;59.75;36.55;;;;;;;6.32;67.36;101439.41;5177015;28;20977;-43
2021/12/06 03:54:57;;;;;;;60.45;35.92;;;;;;;6.35;67.43;101440.06;5178047;28;20429;-43
2021/12/06 03:57:29;;;;;;;53.25;34.22;;;;;;;6.36;67.21;101439.09;5171851;28;20417;-42
2021/12/06 04:00:01;;;;;;;67.95;34.38;;;;;;;6.36;67.45;101433.84;5185779;28;20413;-43
2021/12/06 04:02:35;;;;;;;52.67;32.95;;;;;;;6.38;66.98;101433.72;5185852;28;20918;-42
2021/12/06 04:05:08;;;;;;;51.88;34.05;;;;;;;6.38;67.06;101438.97;5174523;28;20406;-44
2021/12/06 04:07:41;;;;;;;59.53;33.80;;;;;;;6.41;67.04;101439.63;5177699;28;20427;-42
2021/12/06 04:10:15;;;;;;;57.28;34.00;;;;;;;6.40;67.18;101448.41;5175433;28;20425;-42
2021/12/06 04:12:47;;;;;;;60.87;35.37;;;;;;;6.36;67.24;101452.22;5168534;28;20801;-43
2021/12/06 04:15:20;;;;;;;57.08;36.70;;;;;;;6.39;67.08;101446.75;5182251;28;20407;-42
2021/12/06 04:17:52;;;;;;;60.17;36.03;;;;;;;6.40;66.95;101448.41;5182099;28;20953;-42
2021/12/06 04:20:25;;;;;;;57.97;35.87;;;;;;;6.29;67.12;101456.22;5176003;28;20407;-43
2021/12/06 04:22:58;;;;;;;59.63;37.40;;;;;;;6.35;67.11;101445.31;5177497;28;20433;-49
2021/12/06 04:25:32;;;;;;;62.67;37.47;;;;;;;6.34;67.16;101455.88;5167021;28;20501;-43
2021/12/06 04:28:07;;;;;;;62.25;37.08;;;;;;;6.31;66.98;101454.31;5175542;28;20435;-43
2021/12/06 04:30:40;;;;;;;62.88;38.90;;;;;;;6.30;67.02;101460.50;5176572;28;20411;-46
2021/12/06 04:33:13;;;;;;;61.53;36.65;;;;;;;6.29;67.15;101453.59;5175784;28;20432;-42
2021/12/06 04:35:46;;;;;;;58.83;37.80;;;;;;;6.25;67.11;101457.34;5179647;28;20524;-43
2021/12/06 04:38:19;;;;;;;61.90;36.75;;;;;;;6.26;67.25;101466.94;5174905;28;20432;-44
2021/12/06 04:40:53;;;;;;;60.00;35.63;;;;;;;6.23;67.12;101469.75;5183305;28;20415;-42
2021/12/06 04:43:25;;;;;;;55.15;35.58;;;;;;;6.21;66.71;101455.91;5173990;28;20418;-44
2021/12/06 04:45:57;;;;;;;58.38;35.67;;;;;;;6.21;66.93;101461.97;5184766;28;20439;-42
2021/12/06 04:48:30;;;;;;;56.28;34.70;;;;;;;6.23;66.95;101461.91;5168895;28;20486;-43
2021/12/06 04:51:04;;;;;;;56.45;35.38;;;;;;;6.23;66.95;101456.66;5175341;28;20917;-42
2021/12/06 04:53:38;;;;;;;61.40;38.30;;;;;;;6.18;67.06;101440.38;5182680;28;20469;-43
2021/12/06 04:56:20;;;;;;;61.03;36.60;;;;;;;6.19;67.00;101444.66;5177118;28;20423;-48
2021/12/06 04:58:57;;;;;;;55.72;34.72;;;;;;;6.09;66.80;101435.78;5180861;28;20453;-43
2021/12/06 05:01:32;;;;;;;61.30;36.30;;;;;;;6.14;67.12;101447.63;5185655;28;20959;-43
2021/12/06 05:04:09;;;;;;;60.97;35.77;;;;;;;6.19;67.00;101447.28;5180583;28;20843;-46
2021/12/06 05:06:45;;;;;;;64.53;38.25;;;;;;;6.21;66.88;101454.13;5180279;28;20424;-44
2021/12/06 05:09:23;;;;;;;62.65;36.45;;;;;;;6.21;66.87;101453.28;5182129;28;20419;-43
2021/12/06 05:11:57;;;;;;;66.15;37.70;;;;;;;6.23;66.95;101454.03;5181590;28;20502;-42
2021/12/06 05:14:30;;;;;;;60.90;36.50;;;;;;;6.23;66.75;101451.41;5173244;28;20407;-43
2021/12/06 05:17:02;;;;;;;60.95;36.85;;;;;;;6.20;66.75;101435.88;5177031;28;20420;-44
2021/12/06 05:19:38;;;;;;;63.25;37.90;;;;;;;6.30;66.79;101455.25;5178865;28;20515;-43
2021/12/06 05:22:11;;;;;;;60.70;36.20;;;;;;;6.33;66.64;101443.72;5169215;28;20417;-46
2021/12/06 05:24:44;;;;;;;62.43;37.23;;;;;;;6.30;66.42;101441.31;5182359;28;20518;-42
2021/12/06 05:27:23;;;;;;;69.65;38.40;;;;;;;6.38;66.75;101455.59;5179809;28;20423;-43
2021/12/06 05:29:59;;;;;;;67.75;37.88;;;;;;;6.41;66.36;101465.88;5184904;28;20423;-43
2021/12/06 05:32:34;;;;;;;70.63;38.15;;;;;;;6.38;66.41;101463.44;5173882;28;20771;-43
2021/12/06 05:35:10;;;;;;;70.00;38.08;;;;;;;6.44;66.47;101460.41;5186853;28;20419;-43
2021/12/06 05:37:46;;;;;;;72.70;41.00;;;;;;;6.37;66.46;101448.63;5178617;28;20413;-43
2021/12/06 05:40:22;;;;;;;64.35;36.45;;;;;;;6.45;66.64;101467.31;5182000;28;20925;-48
2021/12/06 05:42:57;;;;;;;66.65;38.67;;;;;;;6.40;66.71;101466.78;5177526;28;20506;-45
2021/12/06 05:45:33;;;;;;;67.35;39.15;;;;;;;6.37;66.66;101468.78;5173490;28;21065;-43
2021/12/06 05:48:06;;;;;;;67.87;39.27;;;;;;;6.35;66.72;101475.91;5181701;28;20411;-42
2021/12/06 05:50:38;;;;;;;67.38;39.53;;;;;;;6.31;66.78;101470.06;5179150;28;20457;-43
2021/12/06 05:53:10;;;;;;;70.20;40.20;;;;;;;6.36;66.82;101469.75;5179614;28;20434;-50
2021/12/06 05:55:44;;;;;;;72.32;40.30;;;;;;;6.27;66.71;101452.03;5183741;28;20417;-44
2021/12/06 05:58:22;;;;;;;73.00;39.92;;;;;;;6.39;66.81;101473.00;5185091;28;20427;-46
2021/12/06 06:00:55;;;;;;;75.10;39.85;;;;;;;6.38;66.73;101468.69;5179167;28;20491;-44
2021/12/06 06:03:28;;;;;;;71.88;40.35;;;;;;;6.34;66.66;101464.59;5174686;28;20514;-44
2021/12/06 06:06:00;;;;;;;65.30;37.70;;;;;;;6.27;66.83;101460.72;5184772;28;20783;-44
2021/12/06 06:08:33;;;;;;;67.47;39.25;;;;;;;6.27;66.80;101462.50;5178274;28;20860;-43
2021/12/06 06:11:05;;;;;;;69.20;38.83;;;;;;;6.21;66.86;101467.22;5178502;28;20431;-42
2021/12/06 06:13:39;;;;;;;71.03;41.55;;;;;;;6.15;67.21;101466.81;5173364;28;20528;-42
2021/12/06 06:16:17;;;;;;;69.47;41.60;;;;;;;6.10;67.11;101461.91;5175001;28;20413;-43
2021/12/06 06:18:52;;;;;;;73.88;41.30;;;;;;;6.10;67.00;101477.63;5174945;28;20432;-45
2021/12/06 06:21:24;;;;;;;70.95;40.30;;;;;;;6.12;67.24;101482.75;5184282;28;20430;-46
2021/12/06 06:23:57;;;;;;;69.68;40.55;;;;;;;6.07;67.03;101482.22;5181406;28;20437;-44
2021/12/06 06:26:29;;;;;;;71.85;42.88;;;;;;;6.10;67.10;101480.25;5172975;28;20923;-43
2021/12/06 06:29:04;;;;;;;73.60;41.53;;;;;;;6.13;67.15;101479.19;5175443;28;20433;-43
2021/12/06 06:31:37;;;;;;;68.35;41.08;;;;;;;6.11;67.14;101473.22;5183515;28;20415;-43
2021/12/06 06:34:10;;;;;;;69.03;39.45;;;;;;;6.10;67.13;101482.03;5178833;28;20420;-40
2021/12/06 06:36:43;;;;;;;65.55;40.33;;;;;;;6.11;67.17;101486.34;5170327;28;20415;-42
2021/12/06 06:39:19;;;;;;;69.22;39.17;;;;;;;6.08;67.10;101478.69;5178595;28;20428;-46
2021/12/06 06:41:53;;;;;;;71.25;41.10;;;;;;;6.08;67.15;101491.78;5168765;28;20416;-43
2021/12/06 06:44:27;;;;;;;72.40;42.40;;;;;;;6.10;67.31;101487.25;5183541;28;20411;-43
2021/12/06 06:47:00;;;;;;;72.57;41.28;;;;;;;6.13;67.27;101497.53;5185348;28;20435;-42
2021/12/06 06:49:32;;;;;;;76.28;42.63;;;;;;;6.09;67.10;101496.09;5179149;28;20433;-43
2021/12/06 06:52:05;;;;;;;71.90;40.58;;;;;;;6.15;67.09;101491.25;5180887;28;20772;-43
2021/12/06 06:54:38;;;;;;;75.47;42.58;;;;;;;6.18;67.09;101495.47;5184655;28;20411;-45
2021/12/06 06:57:11;;;;;;;72.78;44.20;;;;;;;6.18;66.87;101490.22;5178541;28;20518;-46
2021/12/06 06:59:45;;;;;;;80.22;43.33;;;;;;;5.87;66.95;101439.84;5182268;28;20411;-45
2021/12/06 07:02:17;;;;;;;77.65;43.72;;;;;;;6.23;66.85;101509.09;5170334;28;20496;-44
2021/12/06 07:04:50;;;;;;;83.03;45.42;;;;;;;6.19;67.01;101495.38;5168490;28;20414;-44
2021/12/06 07:07:22;;;;;;;78.78;45.63;;;;;;;6.18;67.10;101500.69;5173833;28;20407;-44
2021/12/06 07:09:55;;;;;;;85.03;47.97;;;;;;;6.13;67.08;101492.31;5176321;28;20419;-42
2021/12/06 07:12:28;;;;;;;75.15;43.95;;;;;;;6.07;67.29;101482.22;5176698;28;20479;-48
2021/12/06 07:15:01;;;;;;;80.57;44.65;;;;;;;6.04;67.17;101475.44;5173438;28;20431;-44
2021/12/06 07:17:34;;;;;;;96.90;48.42;;;;;;;6.02;67.08;101482.56;5179066;28;20878;-44
2021/12/06 07:20:08;;;;;;;91.70;45.15;;;;;;;5.89;67.22;101474.66;5184145;28;20508;-44
2021/12/06 07:22:41;;;;;;;91.32;48.45;;;;;;;5.92;67.37;101477.06;5174931;28;20772;-48
2021/12/06 07:25:15;;;;;;;87.60;48.38;;;;;;;5.90;67.51;101473.69;5175565;28;20419;-44
2021/12/06 07:27:50;;;;;;;86.78;42.45;;;;;;;5.84;67.36;101468.88;5184293;28;20974;-42
2021/12/06 07:30:24;;;;;;;90.90;45.75;;;;;;;5.74;67.65;101473.91;5175912;28;20769;-44
2021/12/06 07:32:57;;;;;;;73.90;42.15;;;;;;;5.73;67.73;101467.00;5178712;28;20497;-43
2021/12/06 07:35:29;;;;;;;87.60;45.50;;;;;;;5.70;67.43;101479.47;5177678;28;20518;-44
2021/12/06 07:38:05;;;;;;;97.80;48.67;;;;;;;5.58;67.74;101464.56;5181890;28;20832;-44
2021/12/06 07:40:38;;;;;;;94.40;49.10;;;;;;;5.65;67.72;101476.31;5169576;28;20743;-44
2021/12/06 07:43:10;;;;;;;91.00;47.67;;;;;;;5.64;67.61;101474.63;5176941;28;20449;-50
2021/12/06 07:45:44;;;;;;;91.23;47.07;;;;;;;5.64;67.59;101482.50;5188878;28;20913;-45
2021/12/06 07:48:17;;;;;;;86.15;45.38;;;;;;;5.60;67.57;101479.22;5182518;28;20779;-43
2021/12/06 07:50:50;;;;;;;82.75;43.78;;;;;;;5.62;67.67;101481.75;5179636;28;20423;-44
2021/12/06 07:53:22;;;;;;;86.75;46.75;;;;;;;5.62;67.46;101476.50;5184464;28;20424;-46
2021/12/06 07:55:55;;;;;;;77.45;39.08;;;;;;;5.58;67.50;101475.88;5184357;28;20411;-45
2021/12/06 07:58:28;;;;;;;85.03;45.35;;;;;;;5.24;67.71;101437.97;5175481;28;20422;-44
2021/12/06 08:01:01;;;;;;;90.20;46.70;;;;;;;5.45;67.60;101480.22;5179724;28;20498;-43
2021/12/06 08:03:36;;;;;;;92.67;48.37;;;;;;;5.42;67.81;101473.44;5180520;28;20850;-43
2021/12/06 08:06:10;;;;;;;94.95;49.35;;;;;;;5.43;67.86;101477.72;5178123;28;20428;-44
2021/12/06 08:08:44;;;;;;;88.88;48.05;;;;;;;5.46;67.67;101477.53;5180367;28;20396;-44
2021/12/06 08:11:19;;;;;;;101.20;52.45;;;;;;;5.43;67.80;101475.09;5178888;28;20425;-43
2021/12/06 08:13:55;;;;;;;105.67;52.40;;;;;;;5.36;67.61;101455.50;5181974;28;20407;-44
2021/12/06 08:16:32;;;;;;;106.35;53.15;;;;;;;5.52;67.70;101469.25;5182211;28;21563;-43
2021/12/06 08:19:04;;;;;;;96.78;47.03;;;;;;;5.53;67.64;101472.72;5176927;28;20413;-44
2021/12/06 08:21:37;;;;;;;105.95;50.97;;;;;;;5.53;67.54;101481.41;5173558;28;20413;-44
2021/12/06 08:24:10;;;;;;;95.38;48.15;;;;;;;5.45;67.81;101460.13;5183572;28;20427;-43
2021/12/06 08:26:47;;;;;;;100.03;49.42;;;;;;;5.50;67.60;101458.03;5171247;28;20408;-43
2021/12/06 08:29:19;;;;;;;86.60;47.83;;;;;;;5.58;67.69;101473.25;5175442;28;20494;-44
2021/12/06 08:31:53;;;;;;;87.95;48.45;;;;;;;5.54;67.66;101483.09;5182322;28;20499;-45
2021/12/06 08:34:25;;;;;;;103.88;50.22;;;;;;;5.52;67.79;101474.50;5180239;28;20894;-44
2021/12/06 08:37:16;;;;;;;91.97;45.22;;;;;;;5.45;67.68;101486.34;5171569;28;20793;-45
2021/12/06 08:39:49;;;;;;;93.72;45.55;;;;;;;5.48;67.81;101491.38;5173375;28;20541;-43
2021/12/06 08:42:23;;;;;;;85.95;45.15;;;;;;;5.48;67.96;101500.97;5181906;28;20419;-43
2021/12/06 08:44:55;;;;;;;90.53;46.25;;;;;;;5.51;67.80;101506.03;5186947;28;21002;-46
2021/12/06 08:47:29;;;;;;;87.93;46.00;;;;;;;5.52;67.76;101511.19;5187122;28;20514;-44
2021/12/06 08:50:02;;;;;;;82.75;43.53;;;;;;;5.46;67.81;101493.25;5184043;28;20483;-51
2021/12/06 08:52:36;;;;;;;80.07;43.28;;;;;;;5.46;67.96;101487.16;5177723;28;20756;-45
2021/12/06 08:55:12;;;;;;;82.13;44.13;;;;;;;5.41;67.73;101486.63;5178344;28;20414;-44
2021/12/06 08:57:45;;;;;;;89.57;47.08;;;;;;;5.34;68.11;101485.34;5173707;28;20412;-44
2021/12/06 09:00:24;;;;;;;88.10;42.75;;;;;;;5.33;68.24;101484.50;5177268;28;20424;-44
2021/12/06 09:02:58;;;;;;;85.25;42.78;;;;;;;5.38;67.89;101492.88;5178398;28;20401;-43
2021/12/06 09:05:35;;;;;;;81.40;42.80;;;;;;;5.43;67.90;101488.19;5183657;28;20427;-44
2021/12/06 09:08:07;;;;;;;83.13;44.47;;;;;;;5.41;68.05;101484.81;5170030;28;20411;-44
2021/12/06 09:10:53;;;;;;;82.20;44.80;;;;;;;5.37;67.98;101480.75;5178897;28;20411;-45
2021/12/06 09:13:29;;;;;;;75.18;40.33;;;;;;;5.37;68.20;101480.75;5166610;28;20494;-44
2021/12/06 09:16:06;;;;;;;75.43;41.50;;;;;;;5.35;68.26;101480.00;5172719;28;20426;-43
2021/12/06 09:18:45;;;;;;;84.43;45.08;;;;;;;5.29;68.14;101480.38;5169185;28;20430;-44
2021/12/06 09:21:21;;;;;;;80.63;44.08;;;;;;;5.37;68.30;101490.38;5179051;28;20419;-47
2021/12/06 09:23:55;;;;;;;82.28;45.25;;;;;;;5.37;68.16;101483.34;5174958;28;20437;-43
2021/12/06 09:26:28;;;;;;;92.90;49.73;;;;;;;5.42;68.18;101481.28;5175365;28;20425;-45
2021/12/06 09:29:02;;;;;;;88.68;46.95;;;;;;;5.44;67.90;101474.16;5171206;28;20417;-44
2021/12/06 09:31:35;;;;;;;89.85;48.92;;;;;;;5.53;67.97;101489.25;5179349;28;20898;-43
2021/12/06 09:34:09;;;;;;;85.85;46.47;;;;;;;5.55;67.97;101495.25;5173632;28;20431;-43
2021/12/06 09:36:41;;;;;;;79.97;44.85;;;;;;;5.52;68.00;101503.31;5171863;28;20470;-44
2021/12/06 09:39:14;;;;;;;87.57;47.23;;;;;;;5.52;68.14;101492.84;5178431;28;20501;-44
2021/12/06 09:41:47;;;;;;;78.30;42.00;;;;;;;5.48;68.09;101496.59;5171987;28;20905;-43
2021/12/06 09:44:19;;;;;;;83.22;47.47;;;;;;;5.47;68.18;101492.28;5181369;28;20919;-44
2021/12/06 09:46:53;;;;;;;78.75;47.42;;;;;;;5.48;68.21;101480.88;5179508;28;20923;-44
2021/12/06 09:49:27;;;;;;;90.23;47.80;;;;;;;5.57;68.07;101489.06;5186750;28;20442;-45
2021/12/06 09:52:04;;;;;;;94.93;49.63;;;;;;;5.58;68.14;101477.66;5184192;28;20425;-44
2021/12/06 09:54:40;;;;;;;92.38;50.42;;;;;;;5.62;68.04;101474.72;5184631;28;20426;-43
2021/12/06 09:57:12;;;;;;;93.50;49.92;;;;;;;5.66;67.84;101462.25;5178251;28;20742;-49
2021/12/06 09:59:46;;;;;;;95.67;50.43;;;;;;;5.66;67.97;101468.31;5182583;28;20411;-43
2021/12/06 10:02:21;;;;;;;95.13;51.58;;;;;;;5.68;68.05;101460.38;5175968;28;20428;-43
2021/12/06 10:04:55;;;;;;;89.45;50.95;;;;;;;5.73;68.02;101476.63;5176467;28;20430;-44
2021/12/06 10:07:28;;;;;;;87.03;48.00;;;;;;;5.67;67.78;101474.44;5188051;28;20411;-43
2021/12/06 10:10:02;;;;;;;85.80;47.40;;;;;;;5.73;67.86;101497.59;5184127;28;20413;-43
2021/12/06 10:12:35;;;;;;;79.65;42.67;;;;;;;5.39;67.63;101425.63;5189121;28;20411;-46
2021/12/06 10:15:08;;;;;;;82.85;46.25;;;;;;;5.62;68.05;101458.16;5184999;28;20950;-45
2021/12/06 10:17:41;;;;;;;73.35;40.88;;;;;;;5.68;68.13;101457.75;5175095;28;20421;-46
2021/12/06 10:20:16;;;;;;;83.27;46.20;;;;;;;5.57;68.12;101442.72;5181272;28;20488;-43
2021/12/06 10:22:50;;;;;;;86.13;48.00;;;;;;;5.62;68.15;101439.81;5191114;28;20427;-43
2021/12/06 10:25:32;;;;;;;89.70;48.45;;;;;;;5.62;68.07;101438.03;5184414;28;20440;-45
2021/12/06 10:28:06;;;;;;;90.13;50.05;;;;;;;5.65;68.28;101434.38;5184551;28;20917;-43
2021/12/06 10:30:42;;;;;;;96.15;52.85;;;;;;;5.67;68.18;101437.75;5188298;28;20465;-43
2021/12/06 10:33:48;;;;;;;87.65;46.08;;;;;;;5.67;68.11;101427.25;5180724;28;20421;-43
2021/12/06 10:36:25;;;;;;;87.90;48.58;;;;;;;5.62;68.15;101414.44;5184331;28;20485;-43
2021/12/06 10:39:04;;;;;;;86.60;48.57;;;;;;;5.60;68.43;101415.50;5185016;28;20530;-43
2021/12/06 10:41:39;;;;;;;96.63;50.97;;;;;;;5.59;68.42;101404.19;5175733;28;20425;-43
2021/12/06 10:44:14;;;;;;;103.45;53.30;;;;;;;5.57;68.19;101379.00;5179345;28;20905;-47
2021/12/06 10:46:51;;;;;;;94.97;53.13;;;;;;;5.64;68.27;101377.69;5188499;28;20417;-43
2021/12/06 10:49:26;;;;;;;102.47;53.77;;;;;;;5.61;68.15;101370.03;5183492;28;20425;-43
2021/12/06 10:52:00;;;;;;;113.65;55.83;;;;;;;5.69;68.05;101383.41;5184670;28;20776;-44
2021/12/06 10:54:36;;;;;;;106.88;56.20;;;;;;;5.62;67.97;101361.22;5183227;28;20490;-45
2021/12/06 10:57:09;;;;;;;101.65;52.63;;;;;;;5.73;68.13;101390.16;5179132;28;20445;-44
2021/12/06 10:59:41;;;;;;;108.82;56.42;;;;;;;5.67;68.24;101369.59;5178756;28;20407;-45
2021/12/06 11:02:14;;;;;;;105.90;54.58;;;;;;;5.66;68.00;101352.19;5189894;28;20831;-43
2021/12/06 11:04:47;;;;;;;98.60;50.03;;;;;;;5.67;68.20;101339.00;5187867;28;20964;-42
2021/12/06 11:07:21;;;;;;;114.75;57.80;;;;;;;5.64;68.33;101344.44;5177449;28;20423;-43
2021/12/06 11:10:07;;;;;;;108.40;55.60;;;;;;;5.64;68.43;101344.44;5182017;28;20413;-44
2021/12/06 11:12:39;;;;;;;104.28;54.10;;;;;;;5.66;68.32;101331.22;5176562;28;20479;-43
2021/12/06 11:15:14;;;;;;;107.20;54.33;;;;;;;5.72;68.37;101331.63;5182423;28;20494;-42
2021/12/06 11:18:01;;;;;;;98.10;53.78;;;;;;;5.78;68.30;101325.13;5183751;28;20421;-42
2021/12/06 11:20:33;;;;;;;95.25;52.78;;;;;;;5.82;68.30;101331.81;5186187;28;20414;-42
2021/12/06 11:23:07;;;;;;;89.70;51.70;;;;;;;5.82;68.29;101326.59;5176248;28;20420;-43
2021/12/06 11:25:40;;;;;;;87.30;52.30;;;;;;;5.90;68.09;101326.91;5180198;28;20495;-43
2021/12/06 11:28:26;;;;;;;89.05;54.53;;;;;;;5.94;68.36;101320.50;5183678;28;20435;-43
2021/12/06 11:31:01;;;;;;;86.20;49.57;;;;;;;5.99;68.56;101313.19;5188209;28;20422;-44
2021/12/06 11:33:35;;;;;;;86.45;51.65;;;;;;;6.02;68.19;101301.63;5186485;28;20768;-42
2021/12/06 11:36:22;;;;;;;83.85;49.15;;;;;;;6.09;68.45;101294.16;5172418;28;20407;-42
2021/12/06 11:39:05;;;;;;;72.53;40.67;;;;;;;6.07;68.54;101275.94;5176665;28;20455;-44
2021/12/06 11:41:40;;;;;;;75.75;44.38;;;;;;;6.15;68.46;101275.38;5181227;28;20413;-42
2021/12/06 11:44:22;;;;;;;71.72;45.70;;;;;;;6.21;68.42;101281.00;5179729;28;20477;-47
2021/12/06 11:47:04;;;;;;;72.35;45.08;;;;;;;6.31;68.29;101273.31;5181757;28;20486;-46
2021/12/06 11:49:41;;;;;;;75.00;47.27;;;;;;;6.36;68.13;101262.50;5175726;28;20507;-44
2021/12/06 11:52:18;;;;;;;70.07;42.80;;;;;;;6.47;68.22;101276.50;5177096;28;20507;-41
2021/12/06 11:54:56;;;;;;;74.28;46.95;;;;;;;6.45;68.25;101257.41;5179101;28;20897;-45
2021/12/06 11:57:33;;;;;;;75.93;47.00;;;;;;;6.45;68.30;101251.31;5181030;28;20479;-43